Terminal Aerodrome Forecast
Issued by NWS

Home | Current Version | Previous Version | Text Only | Print | Product List | Glossary Off
Versions: 1 2 3 4 5 6 7 8 9 10 11 12 13 14 15 16 17 18 19 20 21 22 23 24

000
FTUS42 KMHX 232300
TAFISO
TAF
KISO 232340Z 2400/2424 04003KT 1SM BR VCSH OVC001
      TEMPO 2400/2403 1/2SM FG OVC002
     FM240300 09003KT 3/4SM -RA BR OVC001
     FM240700 15005KT 3/4SM -RA BR OVC004
     FM241400 19012KT 3SM -RA BR BKN008
      AMD LTD TO CLD VIS AND WIND=

USA.gov is the U.S. government's official web portal to all federal, state and local government web resources and services.